GTE weather

Gothenburg Municipal Airport
Gothenburg, Nebraska, United States

Public forecast

Using degrees Fahrenheit for public forecast. Weather courtesy of forecast.io.

Closest aviation weather report (METAR) to Gothenburg Municipal Airport

Closest report is Jim Kelly Field, 18.7 nm (34.6 km) ESE. Retrieved 2019/10/18 00:35 UTC (11 minutes ago):

KLXN 180035Z AUTO 14010KT 10SM CLR 19/04 A2966 RMK AO2 T01900044

Closest aviation forecast (TAF) to Gothenburg Municipal Airport

Closest forecast is North Platte Regional Airport Lee Bird Field, 27.1 nm (50.2 km) WNW. Retrieved 2019-10-18 00:22 UTC (24 minutes ago):

TAF KLBF 172320Z 1800/1824 14010KT P6SM SCT250 FM181100 29008KT P6SM FEW250 FM181700 33016G24KT P6SM FEW250